createdAt,value
2022-09-28T00:01:13.487Z,11.00
2022-09-28T00:03:40.231Z,11.00
2022-09-28T00:06:09.084Z,11.00
2022-09-28T00:08:36.607Z,11.00
2022-09-28T00:11:05.736Z,11.10
2022-09-28T00:13:33.211Z,11.00
2022-09-28T00:16:08.715Z,11.10
2022-09-28T00:18:36.100Z,11.10
2022-09-28T00:21:08.754Z,11.10
2022-09-28T00:23:56.385Z,11.00
2022-09-28T00:26:24.387Z,11.00
2022-09-28T00:28:59.215Z,11.00
2022-09-28T00:31:29.181Z,10.90
2022-09-28T00:34:00.244Z,10.90
2022-09-28T00:36:31.432Z,10.80
2022-09-28T00:38:59.061Z,10.70
2022-09-28T00:41:27.773Z,10.70
2022-09-28T00:44:26.499Z,10.60
2022-09-28T00:46:58.181Z,10.60
2022-09-28T00:49:43.296Z,10.60
2022-09-28T00:52:14.639Z,10.50
2022-09-28T00:54:45.105Z,10.50
2022-09-28T00:57:12.747Z,10.50
2022-09-28T00:59:40.523Z,10.50
2022-09-28T01:02:07.765Z,10.50
2022-09-28T01:04:34.450Z,10.40
2022-09-28T01:07:01.331Z,10.40
2022-09-28T01:09:28.942Z,10.40
2022-09-28T01:11:55.639Z,10.40
2022-09-28T01:14:25.625Z,10.30
2022-09-28T01:17:35.318Z,10.20
2022-09-28T01:20:16.839Z,10.10
2022-09-28T01:22:43.492Z,10.10
2022-09-28T01:25:37.556Z,10.10
2022-09-28T01:28:13.109Z,10.20
2022-09-28T01:30:47.618Z,10.10
2022-09-28T01:33:22.504Z,10.10
2022-09-28T01:36:07.443Z,10.00
2022-09-28T01:39:09.931Z,10.00
2022-09-28T01:41:40.299Z,9.80
2022-09-28T01:44:13.954Z,9.60
2022-09-28T01:46:44.649Z,9.70
2022-09-28T01:49:34.170Z,9.70
2022-09-28T01:52:24.422Z,9.60
2022-09-28T01:54:55.258Z,9.60
2022-09-28T01:57:34.289Z,9.60
2022-09-28T02:00:13.447Z,9.60
2022-09-28T02:02:53.793Z,9.60
2022-09-28T02:05:32.415Z,9.60
2022-09-28T02:07:59.570Z,9.60
2022-09-28T02:10:33.501Z,9.50
2022-09-28T02:13:11.467Z,9.50
2022-09-28T02:15:53.810Z,9.50
2022-09-28T02:18:20.619Z,9.50
2022-09-28T02:20:56.793Z,9.50
2022-09-28T02:23:26.566Z,9.50
2022-09-28T02:26:03.546Z,9.50
2022-09-28T02:28:30.518Z,9.50
2022-09-28T02:30:57.297Z,9.60
2022-09-28T02:33:37.645Z,9.60
2022-09-28T02:36:05.096Z,9.60
2022-09-28T02:38:32.267Z,9.70
2022-09-28T02:41:27.548Z,9.70
2022-09-28T02:44:19.430Z,9.60
2022-09-28T02:46:50.947Z,9.70
2022-09-28T02:49:23.567Z,9.60
2022-09-28T02:52:43.362Z,9.60
2022-09-28T02:55:24.477Z,9.50
2022-09-28T03:02:22.287Z,9.50
2022-09-28T03:05:13.284Z,9.50
2022-09-28T03:08:19.453Z,9.50
2022-09-28T03:11:08.699Z,9.60
2022-09-28T03:13:35.900Z,9.60
2022-09-28T03:16:11.877Z,9.60
2022-09-28T03:18:38.869Z,9.70
2022-09-28T03:21:05.816Z,9.80
2022-09-28T03:23:32.924Z,9.70
2022-09-28T03:26:00.241Z,9.60
2022-09-28T03:28:27.887Z,9.60
2022-09-28T03:30:55.057Z,9.60
2022-09-28T03:33:22.140Z,9.60
2022-09-28T03:35:50.346Z,9.60
2022-09-28T03:38:20.302Z,9.60
2022-09-28T03:40:57.457Z,9.60
2022-09-28T03:43:25.302Z,9.50
2022-09-28T03:45:56.792Z,9.50
2022-09-28T03:48:29.860Z,9.60
2022-09-28T03:51:01.093Z,9.60
2022-09-28T03:53:29.601Z,9.60
2022-09-28T03:56:01.716Z,9.60
2022-09-28T03:58:28.853Z,9.60
2022-09-28T04:01:01.795Z,9.60
2022-09-28T04:03:28.868Z,9.60
2022-09-28T04:05:55.552Z,9.60
2022-09-28T04:08:22.249Z,9.50
2022-09-28T04:10:49.185Z,9.50
2022-09-28T04:13:15.931Z,9.50
2022-09-28T04:15:43.395Z,9.40
2022-09-28T04:18:13.470Z,9.30
2022-09-28T04:20:41.423Z,9.30
2022-09-28T04:23:08.343Z,9.30
2022-09-28T04:25:35.078Z,9.40
2022-09-28T04:28:20.594Z,9.40
2022-09-28T04:30:48.001Z,9.40
2022-09-28T04:33:14.658Z,9.40
2022-09-28T04:35:41.532Z,9.40
2022-09-28T04:38:08.225Z,9.50
2022-09-28T04:40:34.860Z,9.50
2022-09-28T04:43:01.547Z,9.50
2022-09-28T04:45:28.593Z,9.60
2022-09-28T04:47:55.343Z,9.60
2022-09-28T04:50:21.964Z,9.60
2022-09-28T04:52:48.618Z,9.50
2022-09-28T04:55:15.381Z,9.50
2022-09-28T04:57:41.996Z,9.50
2022-09-28T05:00:10.466Z,9.50
2022-09-28T05:02:37.199Z,9.50
2022-09-28T05:05:04.211Z,9.50
2022-09-28T05:07:31.181Z,9.60
2022-09-28T05:09:57.959Z,9.50
2022-09-28T05:12:24.705Z,9.50
2022-09-28T05:14:51.330Z,9.50
2022-09-28T05:17:18.019Z,9.50
2022-09-28T05:19:44.690Z,9.50
2022-09-28T05:22:14.691Z,9.50
2022-09-28T05:24:41.619Z,9.60
2022-09-28T05:27:08.655Z,9.60
2022-09-28T05:29:35.240Z,9.50
2022-09-28T05:32:02.133Z,9.50
2022-09-28T05:34:29.281Z,9.50
2022-09-28T05:36:55.939Z,9.50
2022-09-28T05:39:22.759Z,9.50
2022-09-28T05:41:49.638Z,9.50
2022-09-28T05:44:16.339Z,9.60
2022-09-28T05:46:43.159Z,9.50
2022-09-28T05:49:09.909Z,9.60
2022-09-28T05:51:36.658Z,9.40
2022-09-28T05:54:13.405Z,9.50
2022-09-28T05:56:40.084Z,9.50
2022-09-28T05:59:06.831Z,9.40
2022-09-28T06:01:33.536Z,9.40
2022-09-28T06:04:00.506Z,9.50
2022-09-28T06:06:27.118Z,9.50
2022-09-28T06:08:53.744Z,9.40
2022-09-28T06:11:20.456Z,9.50
2022-09-28T06:13:47.170Z,9.50
2022-09-28T06:16:16.892Z,9.40
2022-09-28T06:18:43.902Z,9.40
2022-09-28T06:21:12.236Z,9.50
2022-09-28T06:23:40.519Z,9.40
2022-09-28T06:26:07.810Z,9.50
2022-09-28T06:28:34.464Z,9.50
2022-09-28T06:31:01.507Z,9.50
2022-09-28T06:33:28.234Z,9.50
2022-09-28T06:35:54.878Z,9.60
2022-09-28T06:38:21.592Z,9.60
2022-09-28T06:40:48.338Z,9.60
2022-09-28T06:43:15.462Z,9.60
2022-09-28T06:45:43.318Z,9.60
2022-09-28T06:48:11.230Z,9.60
2022-09-28T06:50:40.683Z,9.60
2022-09-28T06:53:10.493Z,9.60
2022-09-28T06:55:49.134Z,9.60
2022-09-28T06:58:17.785Z,9.60
2022-09-28T07:00:45.194Z,9.60
2022-09-28T07:03:14.423Z,9.60
2022-09-28T07:05:44.103Z,9.60
2022-09-28T07:08:11.555Z,9.70
2022-09-28T07:10:47.174Z,9.70
2022-09-28T07:13:41.185Z,9.70
2022-09-28T07:16:01.911Z,9.80
2022-09-28T07:18:29.872Z,9.70
2022-09-28T07:20:57.500Z,9.70
2022-09-28T07:23:27.423Z,9.70
2022-09-28T07:25:54.487Z,9.70
2022-09-28T07:28:22.251Z,9.80
2022-09-28T07:30:49.009Z,9.90
2022-09-28T07:33:17.462Z,10.00
2022-09-28T07:35:55.283Z,10.10
2022-09-28T07:38:22.298Z,10.20
2022-09-28T07:41:07.877Z,10.30
2022-09-28T07:43:34.580Z,10.30
2022-09-28T07:46:01.511Z,10.40
2022-09-28T07:48:29.591Z,10.50
2022-09-28T07:50:57.346Z,10.50
2022-09-28T07:53:25.496Z,10.60
2022-09-28T07:56:01.930Z,10.70
2022-09-28T07:58:28.751Z,10.80
2022-09-28T08:00:55.462Z,10.80
2022-09-28T08:03:22.727Z,10.80
2022-09-28T08:05:49.791Z,10.80
2022-09-28T08:08:16.599Z,10.90
2022-09-28T08:10:47.288Z,10.80
2022-09-28T08:13:14.959Z,10.80
2022-09-28T08:15:42.128Z,10.60
2022-09-28T08:18:08.815Z,10.60
2022-09-28T08:20:53.863Z,10.70
2022-09-28T08:23:20.753Z,10.80
2022-09-28T08:25:48.977Z,11.00
2022-09-28T08:28:17.496Z,11.00
2022-09-28T08:30:45.682Z,11.10
2022-09-28T08:33:13.387Z,11.20
2022-09-28T08:35:43.010Z,11.40
2022-09-28T08:38:10.893Z,11.50
2022-09-28T08:40:52.842Z,11.80
2022-09-28T08:43:49.851Z,11.90
2022-09-28T08:46:21.620Z,12.00
2022-09-28T08:51:54.405Z,12.00
2022-09-28T08:54:58.552Z,12.10
2022-09-28T08:57:33.879Z,12.10
2022-09-28T09:00:02.725Z,12.00
2022-09-28T09:02:33.483Z,12.00
2022-09-28T09:05:06.139Z,12.00
2022-09-28T09:07:47.598Z,11.90
2022-09-28T09:10:48.485Z,11.90
2022-09-28T09:13:31.933Z,11.90
2022-09-28T09:16:30.568Z,11.90
2022-09-28T09:19:25.205Z,12.10
2022-09-28T09:22:40.642Z,12.40
2022-09-28T09:25:26.841Z,12.60
2022-09-28T09:28:11.707Z,12.60
2022-09-28T09:31:22.649Z,12.60
2022-09-28T09:34:20.745Z,12.50
2022-09-28T09:37:00.516Z,12.40
2022-09-28T09:39:39.595Z,12.60
2022-09-28T09:42:36.938Z,12.60
2022-09-28T09:45:27.587Z,12.80
2022-09-28T09:48:06.391Z,13.20
2022-09-28T09:50:32.973Z,13.40
2022-09-28T09:53:20.997Z,13.50
2022-09-28T09:55:54.980Z,13.70
2022-09-28T09:58:35.264Z,13.80
2022-09-28T10:01:15.774Z,13.70
2022-09-28T10:03:48.175Z,13.50
2022-09-28T10:06:24.739Z,13.20
2022-09-28T10:09:25.061Z,13.00
2022-09-28T10:11:53.886Z,12.90
2022-09-28T10:14:24.113Z,12.70
2022-09-28T10:16:53.767Z,12.90
2022-09-28T10:19:25.810Z,13.00
2022-09-28T10:21:53.303Z,13.20
2022-09-28T10:24:36.758Z,13.10
2022-09-28T10:27:11.942Z,12.90
2022-09-28T10:29:55.451Z,12.90
2022-09-28T10:32:27.669Z,13.10
2022-09-28T10:35:27.109Z,13.20
2022-09-28T10:38:04.514Z,13.40
2022-09-28T10:40:43.835Z,13.50
2022-09-28T10:43:27.083Z,13.50
2022-09-28T10:46:02.886Z,13.60
2022-09-28T10:48:37.080Z,13.60
2022-09-28T10:51:07.604Z,13.60
2022-09-28T10:53:37.111Z,13.50
2022-09-28T10:56:18.796Z,13.50
2022-09-28T10:58:45.757Z,13.50
2022-09-28T11:01:16.716Z,13.60
2022-09-28T11:03:57.703Z,13.70
2022-09-28T11:06:28.001Z,13.90
2022-09-28T11:09:03.815Z,13.90
2022-09-28T11:11:39.425Z,13.90
2022-09-28T11:14:26.087Z,14.00
2022-09-28T11:17:38.498Z,13.90
2022-09-28T11:20:30.570Z,13.80
2022-09-28T11:23:16.176Z,13.80
2022-09-28T11:25:43.344Z,13.80
2022-09-28T11:28:27.286Z,13.90
2022-09-28T11:30:54.517Z,14.80
2022-09-28T11:33:35.277Z,15.60
2022-09-28T11:36:13.831Z,16.70
2022-09-28T11:38:59.737Z,16.80
2022-09-28T11:41:32.290Z,16.10
2022-09-28T11:44:08.032Z,15.50
2022-09-28T11:46:37.423Z,15.00
2022-09-28T11:49:42.622Z,14.40
2022-09-28T11:52:49.798Z,14.30
2022-09-28T11:55:32.781Z,14.00
2022-09-28T11:58:23.956Z,13.90
2022-09-28T12:01:02.036Z,13.80
2022-09-28T12:03:51.595Z,13.70
2022-09-28T12:06:29.653Z,13.60
2022-09-28T12:09:03.223Z,13.70
2022-09-28T12:11:40.283Z,13.70
2022-09-28T12:14:18.077Z,13.70
2022-09-28T12:17:06.011Z,13.90
2022-09-28T12:19:42.428Z,14.00
2022-09-28T12:22:34.829Z,14.20
2022-09-28T12:25:03.791Z,14.40
2022-09-28T12:27:53.841Z,14.70
2022-09-28T12:30:25.177Z,15.00
2022-09-28T12:33:09.091Z,15.10
2022-09-28T12:35:54.964Z,15.20
2022-09-28T12:38:27.404Z,15.40
2022-09-28T12:41:08.219Z,15.40
2022-09-28T12:43:38.449Z,15.70
2022-09-28T12:46:24.346Z,16.20
2022-09-28T12:50:07.208Z,16.50
2022-09-28T12:52:24.820Z,17.40
2022-09-28T12:55:30.711Z,17.80
2022-09-28T12:58:09.705Z,18.20
2022-09-28T13:01:00.013Z,19.20
2022-09-28T13:03:45.766Z,20.30
2022-09-28T13:06:20.329Z,21.40
2022-09-28T13:09:05.510Z,22.20
2022-09-28T13:12:23.213Z,22.30
2022-09-28T13:14:58.929Z,22.50
2022-09-28T13:18:00.342Z,23.30
2022-09-28T13:20:47.486Z,23.80
2022-09-28T13:23:33.465Z,24.20
2022-09-28T13:26:09.733Z,24.40
2022-09-28T13:28:37.876Z,24.60
2022-09-28T13:31:05.518Z,24.20
2022-09-28T13:33:44.798Z,24.20
2022-09-28T13:36:36.329Z,23.80
2022-09-28T13:39:03.334Z,24.50
2022-09-28T13:41:38.869Z,25.10
2022-09-28T13:44:12.152Z,25.90
2022-09-28T13:46:47.869Z,25.60
2022-09-28T13:49:24.544Z,25.30
2022-09-28T13:52:19.809Z,26.10
2022-09-28T13:55:20.704Z,26.50
2022-09-28T13:57:59.414Z,27.70
2022-09-28T14:00:30.870Z,28.80
2022-09-28T14:03:06.577Z,29.60
2022-09-28T14:06:04.182Z,28.80
2022-09-28T14:08:34.138Z,28.30
2022-09-28T14:11:24.847Z,28.40
2022-09-28T14:14:11.839Z,27.60
2022-09-28T14:16:40.319Z,27.20
2022-09-28T14:19:26.601Z,27.70
2022-09-28T14:22:25.081Z,28.60
2022-09-28T14:25:17.126Z,28.20
2022-09-28T14:28:01.893Z,27.80
2022-09-28T14:30:54.026Z,28.00
2022-09-28T14:33:20.724Z,28.40
2022-09-28T14:35:56.268Z,27.60
2022-09-28T14:38:49.793Z,27.10
2022-09-28T14:41:17.616Z,26.80
2022-09-28T14:43:44.264Z,26.80
2022-09-28T14:46:11.246Z,26.40
2022-09-28T14:48:54.763Z,26.50
2022-09-28T14:51:27.369Z,27.10
2022-09-28T14:54:15.545Z,26.70
2022-09-28T14:56:44.523Z,26.70
2022-09-28T14:59:26.085Z,26.60
2022-09-28T15:02:00.785Z,26.60
2022-09-28T15:04:30.592Z,27.20
2022-09-28T15:07:00.295Z,27.70
2022-09-28T15:09:31.780Z,27.40
2022-09-28T15:12:09.841Z,27.20
2022-09-28T15:14:45.996Z,27.40
2022-09-28T15:17:20.710Z,27.30
2022-09-28T15:20:08.737Z,27.00
2022-09-28T15:22:37.109Z,26.80
2022-09-28T15:25:14.080Z,27.50
2022-09-28T15:27:41.378Z,27.70
2022-09-28T15:30:28.053Z,27.60
2022-09-28T15:32:56.897Z,27.70
2022-09-28T15:35:26.436Z,27.80
2022-09-28T15:37:54.863Z,27.70
2022-09-28T15:40:32.898Z,27.30
2022-09-28T15:43:00.181Z,26.70
2022-09-28T15:45:31.975Z,26.60
2022-09-28T15:48:18.884Z,26.50
2022-09-28T15:51:05.036Z,25.70
2022-09-28T15:53:32.763Z,26.10
2022-09-28T15:56:09.436Z,25.90
2022-09-28T15:58:37.740Z,26.20
2022-09-28T16:01:22.244Z,25.60
2022-09-28T16:03:48.948Z,25.10
2022-09-28T16:06:16.373Z,24.70
2022-09-28T16:08:48.815Z,24.10
2022-09-28T16:11:28.875Z,23.20
2022-09-28T16:14:06.041Z,22.60
2022-09-28T16:16:49.449Z,21.90
2022-09-28T16:19:37.913Z,21.20
2022-09-28T16:22:07.699Z,20.50
2022-09-28T16:24:36.652Z,20.10
2022-09-28T16:27:09.041Z,19.70
2022-09-28T16:29:41.389Z,19.70
2022-09-28T16:32:26.479Z,19.50
2022-09-28T16:35:18.627Z,19.20
2022-09-28T16:37:47.613Z,19.00
2022-09-28T16:40:14.412Z,19.00
2022-09-28T16:42:48.149Z,18.80
2022-09-28T16:45:21.578Z,18.60
2022-09-28T16:47:51.798Z,18.10
2022-09-28T16:50:21.144Z,17.90
2022-09-28T16:53:15.029Z,17.80
2022-09-28T16:55:41.691Z,17.80
2022-09-28T16:58:08.637Z,17.80
2022-09-28T17:00:35.410Z,17.60
2022-09-28T17:03:05.223Z,17.60
2022-09-28T17:05:32.008Z,17.50
2022-09-28T17:08:04.041Z,17.50
2022-09-28T17:10:45.050Z,17.40
2022-09-28T17:13:26.893Z,17.20
2022-09-28T17:15:53.770Z,17.20
2022-09-28T17:18:20.695Z,17.00
2022-09-28T17:20:50.626Z,17.00
2022-09-28T17:23:17.776Z,16.70
2022-09-28T17:25:45.138Z,16.70
2022-09-28T17:28:21.952Z,16.70
2022-09-28T17:30:48.785Z,16.30
2022-09-28T17:33:15.512Z,16.00
2022-09-28T17:35:44.077Z,15.90
2022-09-28T17:38:15.107Z,15.70
2022-09-28T17:40:43.829Z,15.80
2022-09-28T17:43:11.013Z,15.80
2022-09-28T17:45:40.982Z,15.80
2022-09-28T17:48:13.027Z,15.80
2022-09-28T17:50:43.185Z,15.70
2022-09-28T17:53:12.800Z,15.60
2022-09-28T17:55:40.363Z,15.50
2022-09-28T17:58:21.527Z,15.40
2022-09-28T18:00:51.509Z,15.20
2022-09-28T18:03:20.882Z,15.20
2022-09-28T18:05:49.955Z,15.10
2022-09-28T18:08:21.213Z,14.80
2022-09-28T18:10:47.889Z,14.70
2022-09-28T18:13:14.954Z,14.60
2022-09-28T18:15:42.362Z,14.60
2022-09-28T18:18:09.785Z,14.60
2022-09-28T18:20:37.570Z,14.70
2022-09-28T18:23:04.592Z,14.80
2022-09-28T18:25:31.239Z,14.90
2022-09-28T18:27:59.933Z,15.00
2022-09-28T18:30:27.973Z,15.00
2022-09-28T18:32:54.930Z,15.00
2022-09-28T18:35:23.192Z,14.80
2022-09-28T18:37:50.568Z,14.80
2022-09-28T18:40:17.663Z,14.90
2022-09-28T18:42:44.388Z,14.80
2022-09-28T18:45:11.370Z,14.70
2022-09-28T18:47:39.149Z,14.80
2022-09-28T18:50:06.539Z,14.70
2022-09-28T18:52:36.464Z,14.70
2022-09-28T18:55:03.786Z,14.70
2022-09-28T18:57:33.107Z,14.70
2022-09-28T19:00:00.649Z,14.70
2022-09-28T19:02:27.761Z,14.70
2022-09-28T19:04:54.623Z,14.60
2022-09-28T19:07:21.285Z,14.70
2022-09-28T19:09:47.948Z,14.80
2022-09-28T19:12:14.961Z,14.90
2022-09-28T19:14:41.767Z,15.00
2022-09-28T19:17:08.525Z,15.10
2022-09-28T19:19:35.773Z,15.10
2022-09-28T19:22:02.511Z,15.00
2022-09-28T19:24:29.180Z,15.00
2022-09-28T19:26:56.589Z,15.00
2022-09-28T19:29:23.316Z,14.80
2022-09-28T19:31:51.632Z,14.70
2022-09-28T19:34:18.626Z,14.50
2022-09-28T19:36:45.442Z,14.50
2022-09-28T19:39:15.490Z,14.30
2022-09-28T19:41:45.689Z,14.20
2022-09-28T19:44:26.695Z,14.00
2022-09-28T19:47:00.694Z,14.00
2022-09-28T19:49:30.990Z,13.80
2022-09-28T19:52:14.764Z,13.80
2022-09-28T19:54:44.471Z,13.70
2022-09-28T19:57:12.631Z,13.70
2022-09-28T19:59:39.362Z,13.80
2022-09-28T20:02:07.946Z,13.70
2022-09-28T20:04:34.743Z,13.70
2022-09-28T20:07:01.979Z,13.70
2022-09-28T20:09:29.077Z,13.80
2022-09-28T20:11:55.733Z,13.80
2022-09-28T20:14:24.585Z,13.70
2022-09-28T20:16:53.230Z,13.80
2022-09-28T20:19:21.627Z,13.70
2022-09-28T20:21:48.681Z,13.60
2022-09-28T20:24:18.687Z,13.60
2022-09-28T20:26:45.915Z,13.50
2022-09-28T20:29:12.948Z,13.40
2022-09-28T20:31:40.166Z,13.40
2022-09-28T20:34:07.128Z,13.40
2022-09-28T20:36:34.364Z,13.40
2022-09-28T20:39:02.241Z,13.20
2022-09-28T20:41:35.497Z,13.20
2022-09-28T20:44:06.008Z,13.00
2022-09-28T20:46:34.578Z,12.90
2022-09-28T20:49:01.730Z,12.90
2022-09-28T20:51:28.521Z,12.90
2022-09-28T20:53:57.094Z,12.70
2022-09-28T20:56:37.325Z,12.60
2022-09-28T20:59:06.527Z,12.60
2022-09-28T21:01:33.285Z,12.30
2022-09-28T21:04:01.705Z,12.10
2022-09-28T21:06:31.296Z,12.00
2022-09-28T21:08:58.678Z,11.90
2022-09-28T21:11:27.014Z,11.90
2022-09-28T21:13:59.214Z,11.80
2022-09-28T21:16:27.565Z,11.60
2022-09-28T21:18:54.546Z,11.50
2022-09-28T21:21:22.674Z,11.50
2022-09-28T21:23:52.798Z,11.50
2022-09-28T21:26:25.289Z,11.60
2022-09-28T21:29:00.239Z,11.60
2022-09-28T21:31:32.713Z,11.50
2022-09-28T21:33:59.929Z,11.50
2022-09-28T21:36:26.522Z,11.50
2022-09-28T21:38:56.062Z,11.50
2022-09-28T21:41:24.087Z,11.60
2022-09-28T21:43:51.191Z,11.60
2022-09-28T21:46:18.115Z,11.50
2022-09-28T21:48:44.919Z,11.30
2022-09-28T21:51:14.469Z,11.30
2022-09-28T21:53:42.341Z,11.30
2022-09-28T21:56:11.601Z,11.30
2022-09-28T21:58:40.044Z,11.30
2022-09-28T22:01:13.085Z,11.30
2022-09-28T22:03:40.839Z,11.30
2022-09-28T22:06:08.506Z,11.40
2022-09-28T22:08:36.289Z,11.40
2022-09-28T22:11:12.221Z,11.30
2022-09-28T22:13:50.994Z,11.30
2022-09-28T22:16:20.497Z,11.40
2022-09-28T22:18:47.754Z,11.40
2022-09-28T22:21:20.346Z,11.50
2022-09-28T22:23:47.395Z,11.50
2022-09-28T22:26:33.610Z,11.40
2022-09-28T22:29:03.503Z,11.40
2022-09-28T22:31:32.854Z,11.30
2022-09-28T22:34:00.342Z,11.30
2022-09-28T22:36:27.575Z,11.40
2022-09-28T22:38:55.667Z,11.50
2022-09-28T22:41:23.220Z,11.50
2022-09-28T22:43:51.761Z,11.50
2022-09-28T22:46:22.289Z,11.50
2022-09-28T22:48:51.076Z,11.50
2022-09-28T22:51:17.818Z,11.50
2022-09-28T22:53:44.592Z,11.50
2022-09-28T22:56:15.983Z,11.60
2022-09-28T22:58:45.355Z,11.50
2022-09-28T23:01:18.664Z,11.40
2022-09-28T23:03:46.076Z,11.40
2022-09-28T23:06:16.484Z,11.40
2022-09-28T23:08:45.240Z,11.30
2022-09-28T23:11:12.333Z,11.40
2022-09-28T23:13:39.036Z,11.40
2022-09-28T23:16:08.091Z,11.50
2022-09-28T23:18:36.943Z,11.60
2022-09-28T23:21:06.060Z,11.50
2022-09-28T23:23:33.251Z,11.50
2022-09-28T23:26:00.836Z,11.40
2022-09-28T23:28:27.559Z,11.40
2022-09-28T23:30:54.596Z,11.40
2022-09-28T23:33:22.354Z,11.50
2022-09-28T23:35:49.738Z,11.50
2022-09-28T23:38:18.294Z,11.50
2022-09-28T23:40:46.448Z,11.40
2022-09-28T23:43:13.875Z,11.50
2022-09-28T23:45:42.794Z,11.60
2022-09-28T23:48:09.961Z,11.60
2022-09-28T23:50:36.626Z,11.40
2022-09-28T23:53:03.348Z,11.40
2022-09-28T23:55:30.073Z,11.40
2022-09-28T23:57:58.129Z,11.40
